Olivet, Iowa
Current Conditions -  °F | °C
As of 1:55 AM on Friday 24 Oct 2014 (Local Time) from KPEA Reporting Station
Moderate Fog Moderate Fog  
Wind Chill: 53°   Ceiling: 100
Heat Index: 53°   Visibility: 0mi
Dew Point: 53°   Wind: 5mph
Humidity: 99%   Direction: 210°SSW
Pressure: 30.05"   Gusts: NA
Location:  41.3761°N, 92.8159°W
Report Text: KPEA 240655Z AUTO 21004KT M1/4SM FG OVC001 12/12 A3005 RMK AO2 T01170115
Loading
Personal Weather Stations






























Interactive Weather Map
Tropical Storm Tracking
New forecast layout! Learn more

10-Day Weather Forecast

Advertisements
Track Severe Weather on mobile